sensor_id;sensor_type;location;lat;lon;timestamp;temperature;humidity
49549;DHT22;35450;44.518;7.466;2023-05-07T00:00:11;18.80;99.90
49549;DHT22;35450;44.518;7.466;2023-05-07T00:03:19;18.80;99.90
49549;DHT22;35450;44.518;7.466;2023-05-07T00:06:24;18.80;99.90
49549;DHT22;35450;44.518;7.466;2023-05-07T00:09:29;18.90;99.90
49549;DHT22;35450;44.518;7.466;2023-05-07T00:12:34;18.90;99.90
49549;DHT22;35450;44.518;7.466;2023-05-07T00:15:37;18.70;99.90
49549;DHT22;35450;44.518;7.466;2023-05-07T00:18:41;18.70;99.90
49549;DHT22;35450;44.518;7.466;2023-05-07T00:21:45;18.50;99.90
49549;DHT22;35450;44.518;7.466;2023-05-07T00:24:49;18.50;99.90
49549;DHT22;35450;44.518;7.466;2023-05-07T00:27:53;18.60;99.90
49549;DHT22;35450;44.518;7.466;2023-05-07T00:30:57;18.60;99.80
49549;DHT22;35450;44.518;7.466;2023-05-07T00:34:01;18.60;99.80
49549;DHT22;35450;44.518;7.466;2023-05-07T00:37:05;18.70;99.70
49549;DHT22;35450;44.518;7.466;2023-05-07T00:40:11;18.60;99.80
49549;DHT22;35450;44.518;7.466;2023-05-07T00:43:15;18.60;99.90
49549;DHT22;35450;44.518;7.466;2023-05-07T00:46:20;18.60;99.90
49549;DHT22;35450;44.518;7.466;2023-05-07T00:49:39;18.60;99.90
49549;DHT22;35450;44.518;7.466;2023-05-07T00:52:43;18.50;99.90
49549;DHT22;35450;44.518;7.466;2023-05-07T00:55:48;18.50;99.90
49549;DHT22;35450;44.518;7.466;2023-05-07T00:58:53;18.50;99.80
49549;DHT22;35450;44.518;7.466;2023-05-07T01:01:56;18.40;99.80
49549;DHT22;35450;44.518;7.466;2023-05-07T01:05:01;18.40;99.70
49549;DHT22;35450;44.518;7.466;2023-05-07T01:08:05;18.40;99.50
49549;DHT22;35450;44.518;7.466;2023-05-07T01:11:11;18.40;99.60
49549;DHT22;35450;44.518;7.466;2023-05-07T01:14:15;18.40;99.60
49549;DHT22;35450;44.518;7.466;2023-05-07T01:17:19;18.40;99.50
49549;DHT22;35450;44.518;7.466;2023-05-07T01:20:24;18.50;99.60
49549;DHT22;35450;44.518;7.466;2023-05-07T01:23:30;18.50;99.80
49549;DHT22;35450;44.518;7.466;2023-05-07T01:26:35;18.60;99.60
49549;DHT22;35450;44.518;7.466;2023-05-07T01:29:39;18.60;99.50
49549;DHT22;35450;44.518;7.466;2023-05-07T01:32:53;18.40;99.20
49549;DHT22;35450;44.518;7.466;2023-05-07T01:36:00;18.40;99.30
49549;DHT22;35450;44.518;7.466;2023-05-07T01:39:06;18.50;99.30
49549;DHT22;35450;44.518;7.466;2023-05-07T01:42:12;18.60;99.40
49549;DHT22;35450;44.518;7.466;2023-05-07T01:45:16;18.50;99.20
49549;DHT22;35450;44.518;7.466;2023-05-07T01:48:20;18.50;99.10
49549;DHT22;35450;44.518;7.466;2023-05-07T01:51:24;18.50;99.30
49549;DHT22;35450;44.518;7.466;2023-05-07T01:54:29;18.50;99.40
49549;DHT22;35450;44.518;7.466;2023-05-07T01:57:35;18.50;99.50
49549;DHT22;35450;44.518;7.466;2023-05-07T02:00:40;18.30;99.90
49549;DHT22;35450;44.518;7.466;2023-05-07T02:03:46;18.20;99.80
49549;DHT22;35450;44.518;7.466;2023-05-07T02:06:57;18.30;99.90
49549;DHT22;35450;44.518;7.466;2023-05-07T02:10:01;18.40;99.90
49549;DHT22;35450;44.518;7.466;2023-05-07T02:13:07;18.30;99.90
49549;DHT22;35450;44.518;7.466;2023-05-07T02:16:11;18.40;99.90
49549;DHT22;35450;44.518;7.466;2023-05-07T02:19:16;18.40;99.90
49549;DHT22;35450;44.518;7.466;2023-05-07T02:22:20;18.40;99.90
49549;DHT22;35450;44.518;7.466;2023-05-07T02:25:24;18.40;99.90
49549;DHT22;35450;44.518;7.466;2023-05-07T02:28:28;18.40;99.70
49549;DHT22;35450;44.518;7.466;2023-05-07T02:31:37;18.40;99.50
49549;DHT22;35450;44.518;7.466;2023-05-07T02:34:41;18.30;99.20
49549;DHT22;35450;44.518;7.466;2023-05-07T02:37:45;18.10;99.20
49549;DHT22;35450;44.518;7.466;2023-05-07T02:40:49;18.10;99.00
49549;DHT22;35450;44.518;7.466;2023-05-07T02:43:54;18.10;99.40
49549;DHT22;35450;44.518;7.466;2023-05-07T02:46:58;18.10;99.50
49549;DHT22;35450;44.518;7.466;2023-05-07T02:50:03;18.20;99.40
49549;DHT22;35450;44.518;7.466;2023-05-07T02:53:07;18.10;99.20
49549;DHT22;35450;44.518;7.466;2023-05-07T02:56:12;18.00;99.00
49549;DHT22;35450;44.518;7.466;2023-05-07T02:59:16;18.00;98.90
49549;DHT22;35450;44.518;7.466;2023-05-07T03:02:20;18.00;99.10
49549;DHT22;35450;44.518;7.466;2023-05-07T03:05:23;17.90;99.10
49549;DHT22;35450;44.518;7.466;2023-05-07T03:08:27;17.90;99.00
49549;DHT22;35450;44.518;7.466;2023-05-07T03:11:31;18.00;98.90
49549;DHT22;35450;44.518;7.466;2023-05-07T03:14:36;17.90;98.60
49549;DHT22;35450;44.518;7.466;2023-05-07T03:17:40;18.00;98.50
49549;DHT22;35450;44.518;7.466;2023-05-07T03:20:44;18.00;98.70
49549;DHT22;35450;44.518;7.466;2023-05-07T03:23:48;18.00;98.40
49549;DHT22;35450;44.518;7.466;2023-05-07T03:26:52;18.00;98.30
49549;DHT22;35450;44.518;7.466;2023-05-07T03:29:57;17.90;98.60
49549;DHT22;35450;44.518;7.466;2023-05-07T03:33:01;18.00;98.80
49549;DHT22;35450;44.518;7.466;2023-05-07T03:36:05;18.00;98.80
49549;DHT22;35450;44.518;7.466;2023-05-07T03:39:09;17.90;98.90
49549;DHT22;35450;44.518;7.466;2023-05-07T03:42:17;17.90;98.70
49549;DHT22;35450;44.518;7.466;2023-05-07T03:45:21;17.90;98.80
49549;DHT22;35450;44.518;7.466;2023-05-07T03:48:34;18.00;99.10
49549;DHT22;35450;44.518;7.466;2023-05-07T03:51:38;18.00;99.00
49549;DHT22;35450;44.518;7.466;2023-05-07T03:54:44;18.10;99.20
49549;DHT22;35450;44.518;7.466;2023-05-07T03:57:51;18.10;99.20
49549;DHT22;35450;44.518;7.466;2023-05-07T04:00:56;18.10;99.00
49549;DHT22;35450;44.518;7.466;2023-05-07T04:04:05;18.10;99.00
49549;DHT22;35450;44.518;7.466;2023-05-07T04:07:11;18.10;98.90
49549;DHT22;35450;44.518;7.466;2023-05-07T04:10:19;18.10;98.70
49549;DHT22;35450;44.518;7.466;2023-05-07T04:13:26;18.10;99.00
49549;DHT22;35450;44.518;7.466;2023-05-07T04:16:30;18.10;99.50
49549;DHT22;35450;44.518;7.466;2023-05-07T04:19:34;18.00;99.80
49549;DHT22;35450;44.518;7.466;2023-05-07T04:22:38;18.00;99.90
49549;DHT22;35450;44.518;7.466;2023-05-07T04:25:43;18.00;99.90
49549;DHT22;35450;44.518;7.466;2023-05-07T04:29:16;18.00;99.70
49549;DHT22;35450;44.518;7.466;2023-05-07T04:32:21;18.00;99.90
49549;DHT22;35450;44.518;7.466;2023-05-07T04:35:26;18.10;99.80
49549;DHT22;35450;44.518;7.466;2023-05-07T04:38:31;18.00;99.90
49549;DHT22;35450;44.518;7.466;2023-05-07T04:41:37;18.10;99.90
49549;DHT22;35450;44.518;7.466;2023-05-07T04:44:44;18.10;99.70
49549;DHT22;35450;44.518;7.466;2023-05-07T04:47:48;18.10;99.50
49549;DHT22;35450;44.518;7.466;2023-05-07T04:50:52;18.10;99.10
49549;DHT22;35450;44.518;7.466;2023-05-07T04:53:57;18.10;99.10
49549;DHT22;35450;44.518;7.466;2023-05-07T04:57:04;18.00;99.00
49549;DHT22;35450;44.518;7.466;2023-05-07T05:00:09;18.00;99.20
49549;DHT22;35450;44.518;7.466;2023-05-07T05:03:15;18.10;99.00
49549;DHT22;35450;44.518;7.466;2023-05-07T05:06:19;18.00;98.90
49549;DHT22;35450;44.518;7.466;2023-05-07T05:09:23;17.80;98.60
49549;DHT22;35450;44.518;7.466;2023-05-07T05:12:26;17.80;99.10
49549;DHT22;35450;44.518;7.466;2023-05-07T05:15:30;17.70;99.60
49549;DHT22;35450;44.518;7.466;2023-05-07T05:18:35;17.60;99.60
49549;DHT22;35450;44.518;7.466;2023-05-07T05:21:40;17.60;99.90
49549;DHT22;35450;44.518;7.466;2023-05-07T05:24:46;17.60;99.80
49549;DHT22;35450;44.518;7.466;2023-05-07T05:27:50;17.70;99.80
49549;DHT22;35450;44.518;7.466;2023-05-07T05:30:54;17.70;99.70
49549;DHT22;35450;44.518;7.466;2023-05-07T05:34:01;17.70;99.60
49549;DHT22;35450;44.518;7.466;2023-05-07T05:37:05;17.80;99.50
49549;DHT22;35450;44.518;7.466;2023-05-07T05:40:10;17.90;99.30
49549;DHT22;35450;44.518;7.466;2023-05-07T05:43:14;18.10;99.20
49549;DHT22;35450;44.518;7.466;2023-05-07T05:46:18;18.20;99.00
49549;DHT22;35450;44.518;7.466;2023-05-07T05:49:24;18.10;98.80
49549;DHT22;35450;44.518;7.466;2023-05-07T05:52:27;18.10;98.60
49549;DHT22;35450;44.518;7.466;2023-05-07T05:55:33;18.10;98.90
49549;DHT22;35450;44.518;7.466;2023-05-07T05:58:38;18.20;99.00
49549;DHT22;35450;44.518;7.466;2023-05-07T06:01:44;18.30;98.70
49549;DHT22;35450;44.518;7.466;2023-05-07T06:04:49;18.40;98.80
49549;DHT22;35450;44.518;7.466;2023-05-07T06:07:56;18.40;98.90
49549;DHT22;35450;44.518;7.466;2023-05-07T06:11:01;18.50;98.90
49549;DHT22;35450;44.518;7.466;2023-05-07T06:14:07;18.50;98.80
49549;DHT22;35450;44.518;7.466;2023-05-07T06:17:12;18.60;99.00
49549;DHT22;35450;44.518;7.466;2023-05-07T06:20:17;18.60;99.00
49549;DHT22;35450;44.518;7.466;2023-05-07T06:23:21;18.70;99.00
49549;DHT22;35450;44.518;7.466;2023-05-07T06:26:26;18.70;99.00
49549;DHT22;35450;44.518;7.466;2023-05-07T06:29:30;18.70;99.00
49549;DHT22;35450;44.518;7.466;2023-05-07T06:32:37;18.60;98.90
49549;DHT22;35450;44.518;7.466;2023-05-07T06:35:41;18.60;99.00
49549;DHT22;35450;44.518;7.466;2023-05-07T06:38:46;18.60;99.20
49549;DHT22;35450;44.518;7.466;2023-05-07T06:41:49;18.60;99.40
49549;DHT22;35450;44.518;7.466;2023-05-07T06:45:01;18.50;99.50
49549;DHT22;35450;44.518;7.466;2023-05-07T06:48:08;18.50;99.70
49549;DHT22;35450;44.518;7.466;2023-05-07T06:51:22;18.40;99.90
49549;DHT22;35450;44.518;7.466;2023-05-07T06:54:26;18.40;99.90
49549;DHT22;35450;44.518;7.466;2023-05-07T06:57:30;18.40;99.90
49549;DHT22;35450;44.518;7.466;2023-05-07T07:00:34;18.40;99.90
49549;DHT22;35450;44.518;7.466;2023-05-07T07:03:38;18.40;99.90
49549;DHT22;35450;44.518;7.466;2023-05-07T07:06:42;18.40;99.90
49549;DHT22;35450;44.518;7.466;2023-05-07T07:09:49;18.40;99.90
49549;DHT22;35450;44.518;7.466;2023-05-07T07:12:55;18.40;99.90
49549;DHT22;35450;44.518;7.466;2023-05-07T07:16:00;18.40;99.90
49549;DHT22;35450;44.518;7.466;2023-05-07T07:19:05;18.40;99.90
49549;DHT22;35450;44.518;7.466;2023-05-07T07:22:09;18.40;99.90
49549;DHT22;35450;44.518;7.466;2023-05-07T07:25:14;18.40;99.90
49549;DHT22;35450;44.518;7.466;2023-05-07T07:28:21;18.40;99.90
49549;DHT22;35450;44.518;7.466;2023-05-07T07:31:25;18.40;99.90
49549;DHT22;35450;44.518;7.466;2023-05-07T07:34:30;18.40;99.90
49549;DHT22;35450;44.518;7.466;2023-05-07T07:37:34;18.40;99.90
49549;DHT22;35450;44.518;7.466;2023-05-07T07:40:38;18.40;99.90
49549;DHT22;35450;44.518;7.466;2023-05-07T07:43:44;18.40;99.90
49549;DHT22;35450;44.518;7.466;2023-05-07T07:46:51;18.40;99.90
49549;DHT22;35450;44.518;7.466;2023-05-07T07:49:56;18.40;99.90
49549;DHT22;35450;44.518;7.466;2023-05-07T07:53:00;18.40;99.90
49549;DHT22;35450;44.518;7.466;2023-05-07T07:56:04;18.40;99.90
49549;DHT22;35450;44.518;7.466;2023-05-07T07:59:10;18.40;99.90
49549;DHT22;35450;44.518;7.466;2023-05-07T08:02:18;18.40;99.90
49549;DHT22;35450;44.518;7.466;2023-05-07T08:05:23;18.40;99.90
49549;DHT22;35450;44.518;7.466;2023-05-07T08:08:27;18.40;99.90
49549;DHT22;35450;44.518;7.466;2023-05-07T08:11:32;18.50;99.90
49549;DHT22;35450;44.518;7.466;2023-05-07T08:14:37;18.50;99.90
49549;DHT22;35450;44.518;7.466;2023-05-07T08:17:43;18.50;99.90
49549;DHT22;35450;44.518;7.466;2023-05-07T08:20:47;18.60;99.90
49549;DHT22;35450;44.518;7.466;2023-05-07T08:23:56;18.70;99.90
49549;DHT22;35450;44.518;7.466;2023-05-07T08:27:01;18.70;99.90
49549;DHT22;35450;44.518;7.466;2023-05-07T08:30:05;18.80;99.90
49549;DHT22;35450;44.518;7.466;2023-05-07T08:33:09;18.80;99.90
49549;DHT22;35450;44.518;7.466;2023-05-07T08:36:14;18.90;99.90
49549;DHT22;35450;44.518;7.466;2023-05-07T08:39:18;19.00;99.90
49549;DHT22;35450;44.518;7.466;2023-05-07T08:42:25;19.10;99.90
49549;DHT22;35450;44.518;7.466;2023-05-07T08:45:30;19.20;99.60
49549;DHT22;35450;44.518;7.466;2023-05-07T08:48:37;19.30;99.50
49549;DHT22;35450;44.518;7.466;2023-05-07T08:51:46;19.20;99.40
49549;DHT22;35450;44.518;7.466;2023-05-07T08:54:51;19.30;99.60
49549;DHT22;35450;44.518;7.466;2023-05-07T08:57:56;19.40;99.40
49549;DHT22;35450;44.518;7.466;2023-05-07T09:01:06;19.40;99.50
49549;DHT22;35450;44.518;7.466;2023-05-07T09:04:11;19.40;99.20
49549;DHT22;35450;44.518;7.466;2023-05-07T09:07:17;19.40;99.10
49549;DHT22;35450;44.518;7.466;2023-05-07T09:10:21;19.40;99.10
49549;DHT22;35450;44.518;7.466;2023-05-07T09:13:27;19.40;99.30
49549;DHT22;35450;44.518;7.466;2023-05-07T09:16:32;19.50;99.30
49549;DHT22;35450;44.518;7.466;2023-05-07T09:19:37;19.50;99.20
49549;DHT22;35450;44.518;7.466;2023-05-07T09:22:43;19.60;99.20
49549;DHT22;35450;44.518;7.466;2023-05-07T09:26:00;19.50;99.10
49549;DHT22;35450;44.518;7.466;2023-05-07T09:29:07;19.50;99.20
49549;DHT22;35450;44.518;7.466;2023-05-07T09:32:12;19.60;99.10
49549;DHT22;35450;44.518;7.466;2023-05-07T09:35:17;19.60;99.10
49549;DHT22;35450;44.518;7.466;2023-05-07T09:38:25;19.60;99.10
49549;DHT22;35450;44.518;7.466;2023-05-07T09:41:43;19.60;98.80
49549;DHT22;35450;44.518;7.466;2023-05-07T09:44:53;19.60;99.10
49549;DHT22;35450;44.518;7.466;2023-05-07T09:48:01;19.50;99.30
49549;DHT22;35450;44.518;7.466;2023-05-07T09:51:55;19.50;99.20
49549;DHT22;35450;44.518;7.466;2023-05-07T09:54:41;19.60;99.10
49549;DHT22;35450;44.518;7.466;2023-05-07T09:57:50;19.50;99.50
49549;DHT22;35450;44.518;7.466;2023-05-07T10:00:54;19.30;99.30
49549;DHT22;35450;44.518;7.466;2023-05-07T10:04:02;19.20;99.90
49549;DHT22;35450;44.518;7.466;2023-05-07T10:07:08;19.30;99.80
49549;DHT22;35450;44.518;7.466;2023-05-07T10:10:14;19.40;99.80
49549;DHT22;35450;44.518;7.466;2023-05-07T10:13:22;19.50;99.30
49549;DHT22;35450;44.518;7.466;2023-05-07T10:16:32;19.60;99.30
49549;DHT22;35450;44.518;7.466;2023-05-07T10:19:37;19.50;99.30
49549;DHT22;35450;44.518;7.466;2023-05-07T10:22:47;19.60;99.30
49549;DHT22;35450;44.518;7.466;2023-05-07T10:25:56;19.70;99.30
49549;DHT22;35450;44.518;7.466;2023-05-07T10:29:11;19.80;99.00
49549;DHT22;35450;44.518;7.466;2023-05-07T10:35:58;20.00;98.40
49549;DHT22;35450;44.518;7.466;2023-05-07T10:39:05;20.00;98.60
49549;DHT22;35450;44.518;7.466;2023-05-07T10:42:11;20.00;98.10
49549;DHT22;35450;44.518;7.466;2023-05-07T10:45:17;20.10;98.10
49549;DHT22;35450;44.518;7.466;2023-05-07T10:48:26;20.00;98.00
49549;DHT22;35450;44.518;7.466;2023-05-07T10:51:34;20.00;98.30
49549;DHT22;35450;44.518;7.466;2023-05-07T10:54:47;20.10;98.30
49549;DHT22;35450;44.518;7.466;2023-05-07T10:58:27;20.10;98.00
49549;DHT22;35450;44.518;7.466;2023-05-07T11:02:03;20.10;98.70
49549;DHT22;35450;44.518;7.466;2023-05-07T11:05:20;20.30;98.30
49549;DHT22;35450;44.518;7.466;2023-05-07T11:08:41;20.30;98.20
49549;DHT22;35450;44.518;7.466;2023-05-07T11:11:51;20.50;98.30
49549;DHT22;35450;44.518;7.466;2023-05-07T11:15:34;20.60;97.80
49549;DHT22;35450;44.518;7.466;2023-05-07T11:21:53;20.70;97.00
49549;DHT22;35450;44.518;7.466;2023-05-07T11:25:04;20.80;96.70
49549;DHT22;35450;44.518;7.466;2023-05-07T11:28:10;20.90;96.60
49549;DHT22;35450;44.518;7.466;2023-05-07T11:31:23;20.90;96.30
49549;DHT22;35450;44.518;7.466;2023-05-07T11:34:28;21.00;96.20
49549;DHT22;35450;44.518;7.466;2023-05-07T11:37:34;21.00;95.90
49549;DHT22;35450;44.518;7.466;2023-05-07T11:40:50;21.00;95.80
49549;DHT22;35450;44.518;7.466;2023-05-07T11:43:56;21.00;95.30
49549;DHT22;35450;44.518;7.466;2023-05-07T11:47:00;21.00;95.60
49549;DHT22;35450;44.518;7.466;2023-05-07T11:50:07;20.70;95.90
49549;DHT22;35450;44.518;7.466;2023-05-07T11:53:11;20.50;96.50
49549;DHT22;35450;44.518;7.466;2023-05-07T11:56:17;20.50;96.70
49549;DHT22;35450;44.518;7.466;2023-05-07T11:59:21;20.40;97.00
49549;DHT22;35450;44.518;7.466;2023-05-07T12:02:26;20.40;96.60
49549;DHT22;35450;44.518;7.466;2023-05-07T12:05:30;20.40;96.60
49549;DHT22;35450;44.518;7.466;2023-05-07T12:08:36;20.30;96.50
49549;DHT22;35450;44.518;7.466;2023-05-07T12:11:45;20.30;97.00
49549;DHT22;35450;44.518;7.466;2023-05-07T12:14:50;20.50;96.30
49549;DHT22;35450;44.518;7.466;2023-05-07T12:17:54;20.70;96.10
49549;DHT22;35450;44.518;7.466;2023-05-07T12:20:59;20.90;95.90
49549;DHT22;35450;44.518;7.466;2023-05-07T12:24:04;20.70;95.30
49549;DHT22;35450;44.518;7.466;2023-05-07T12:27:09;20.80;95.30
49549;DHT22;35450;44.518;7.466;2023-05-07T12:30:13;20.90;95.00
49549;DHT22;35450;44.518;7.466;2023-05-07T12:33:18;20.90;94.90
49549;DHT22;35450;44.518;7.466;2023-05-07T12:36:24;20.80;95.50
49549;DHT22;35450;44.518;7.466;2023-05-07T12:39:29;20.90;95.00
49549;DHT22;35450;44.518;7.466;2023-05-07T12:42:36;21.00;95.10
49549;DHT22;35450;44.518;7.466;2023-05-07T12:45:41;20.80;96.10
49549;DHT22;35450;44.518;7.466;2023-05-07T12:48:46;20.70;95.70
49549;DHT22;35450;44.518;7.466;2023-05-07T12:51:50;20.80;95.60
49549;DHT22;35450;44.518;7.466;2023-05-07T12:54:53;20.80;95.60
49549;DHT22;35450;44.518;7.466;2023-05-07T12:58:01;20.80;95.70
49549;DHT22;35450;44.518;7.466;2023-05-07T13:01:07;20.80;95.60
49549;DHT22;35450;44.518;7.466;2023-05-07T13:04:13;20.80;95.80
49549;DHT22;35450;44.518;7.466;2023-05-07T13:07:17;20.60;96.40
49549;DHT22;35450;44.518;7.466;2023-05-07T13:10:22;20.30;96.80
49549;DHT22;35450;44.518;7.466;2023-05-07T13:13:26;20.10;97.10
49549;DHT22;35450;44.518;7.466;2023-05-07T13:16:30;20.00;97.10
49549;DHT22;35450;44.518;7.466;2023-05-07T13:19:34;19.90;97.60
49549;DHT22;35450;44.518;7.466;2023-05-07T13:22:39;19.90;97.60
49549;DHT22;35450;44.518;7.466;2023-05-07T13:25:43;19.90;98.60
49549;DHT22;35450;44.518;7.466;2023-05-07T13:28:47;19.80;98.50
49549;DHT22;35450;44.518;7.466;2023-05-07T13:31:52;19.80;98.60
49549;DHT22;35450;44.518;7.466;2023-05-07T13:34:56;19.80;99.30
49549;DHT22;35450;44.518;7.466;2023-05-07T13:38:00;19.70;99.60
49549;DHT22;35450;44.518;7.466;2023-05-07T13:41:04;19.70;99.80
49549;DHT22;35450;44.518;7.466;2023-05-07T13:44:07;19.60;99.90
49549;DHT22;35450;44.518;7.466;2023-05-07T13:47:11;19.60;99.90
49549;DHT22;35450;44.518;7.466;2023-05-07T13:50:15;19.70;99.90
49549;DHT22;35450;44.518;7.466;2023-05-07T13:53:20;19.70;99.90
49549;DHT22;35450;44.518;7.466;2023-05-07T13:56:24;19.70;99.90
49549;DHT22;35450;44.518;7.466;2023-05-07T13:59:28;19.70;99.90
49549;DHT22;35450;44.518;7.466;2023-05-07T14:02:32;19.80;99.90
49549;DHT22;35450;44.518;7.466;2023-05-07T14:05:36;19.80;99.90
49549;DHT22;35450;44.518;7.466;2023-05-07T14:08:40;19.90;99.90
49549;DHT22;35450;44.518;7.466;2023-05-07T14:11:44;19.80;99.90
49549;DHT22;35450;44.518;7.466;2023-05-07T14:14:48;19.70;99.90
49549;DHT22;35450;44.518;7.466;2023-05-07T14:17:53;19.70;99.90
49549;DHT22;35450;44.518;7.466;2023-05-07T14:20:57;19.90;99.90
49549;DHT22;35450;44.518;7.466;2023-05-07T14:24:01;20.00;99.90
49549;DHT22;35450;44.518;7.466;2023-05-07T14:27:05;20.10;98.80
49549;DHT22;35450;44.518;7.466;2023-05-07T14:30:10;20.20;99.00
49549;DHT22;35450;44.518;7.466;2023-05-07T14:33:14;20.20;99.50
49549;DHT22;35450;44.518;7.466;2023-05-07T14:36:18;20.30;98.30
49549;DHT22;35450;44.518;7.466;2023-05-07T14:39:26;20.40;98.40
49549;DHT22;35450;44.518;7.466;2023-05-07T14:42:30;20.30;98.50
49549;DHT22;35450;44.518;7.466;2023-05-07T14:45:34;20.20;98.60
49549;DHT22;35450;44.518;7.466;2023-05-07T14:48:38;20.10;98.90
49549;DHT22;35450;44.518;7.466;2023-05-07T14:51:43;20.10;98.90
49549;DHT22;35450;44.518;7.466;2023-05-07T14:54:48;20.10;98.50
49549;DHT22;35450;44.518;7.466;2023-05-07T14:57:52;20.10;98.30
49549;DHT22;35450;44.518;7.466;2023-05-07T15:00:56;20.10;98.70
49549;DHT22;35450;44.518;7.466;2023-05-07T15:04:00;20.00;98.50
49549;DHT22;35450;44.518;7.466;2023-05-07T15:07:04;20.00;99.10
49549;DHT22;35450;44.518;7.466;2023-05-07T15:10:08;20.00;99.10
49549;DHT22;35450;44.518;7.466;2023-05-07T15:13:12;19.90;98.60
49549;DHT22;35450;44.518;7.466;2023-05-07T15:16:16;20.00;98.50
49549;DHT22;35450;44.518;7.466;2023-05-07T15:19:20;19.80;98.80
49549;DHT22;35450;44.518;7.466;2023-05-07T15:22:25;19.70;98.50
49549;DHT22;35450;44.518;7.466;2023-05-07T15:25:30;19.60;99.40
49549;DHT22;35450;44.518;7.466;2023-05-07T15:28:34;19.70;99.30
49549;DHT22;35450;44.518;7.466;2023-05-07T15:31:38;19.70;99.30
49549;DHT22;35450;44.518;7.466;2023-05-07T15:34:42;19.80;99.10
49549;DHT22;35450;44.518;7.466;2023-05-07T15:37:46;19.90;99.20
49549;DHT22;35450;44.518;7.466;2023-05-07T15:40:50;20.00;99.50
49549;DHT22;35450;44.518;7.466;2023-05-07T15:43:54;20.10;99.50
49549;DHT22;35450;44.518;7.466;2023-05-07T15:46:59;20.10;99.50
49549;DHT22;35450;44.518;7.466;2023-05-07T15:50:03;20.00;99.80
49549;DHT22;35450;44.518;7.466;2023-05-07T15:53:08;19.80;98.90
49549;DHT22;35450;44.518;7.466;2023-05-07T15:56:12;19.70;99.40
49549;DHT22;35450;44.518;7.466;2023-05-07T15:59:16;19.60;99.30
49549;DHT22;35450;44.518;7.466;2023-05-07T16:02:20;19.40;98.80
49549;DHT22;35450;44.518;7.466;2023-05-07T16:05:24;19.40;99.00
49549;DHT22;35450;44.518;7.466;2023-05-07T16:08:28;19.20;97.90
49549;DHT22;35450;44.518;7.466;2023-05-07T16:11:32;19.20;98.90
49549;DHT22;35450;44.518;7.466;2023-05-07T16:14:36;19.20;99.10
49549;DHT22;35450;44.518;7.466;2023-05-07T16:17:40;19.10;99.40
49549;DHT22;35450;44.518;7.466;2023-05-07T16:20:44;19.30;99.80
49549;DHT22;35450;44.518;7.466;2023-05-07T16:23:48;19.40;99.90
49549;DHT22;35450;44.518;7.466;2023-05-07T16:26:53;19.40;99.90
49549;DHT22;35450;44.518;7.466;2023-05-07T16:29:57;19.50;99.90
49549;DHT22;35450;44.518;7.466;2023-05-07T16:33:01;19.60;99.90
49549;DHT22;35450;44.518;7.466;2023-05-07T16:36:06;19.60;99.90
49549;DHT22;35450;44.518;7.466;2023-05-07T16:39:10;19.70;99.90
49549;DHT22;35450;44.518;7.466;2023-05-07T16:42:14;19.70;99.90
49549;DHT22;35450;44.518;7.466;2023-05-07T16:45:18;19.70;99.90
49549;DHT22;35450;44.518;7.466;2023-05-07T16:48:22;19.70;99.90
49549;DHT22;35450;44.518;7.466;2023-05-07T16:51:26;19.70;99.90
49549;DHT22;35450;44.518;7.466;2023-05-07T16:54:30;19.70;99.90
49549;DHT22;35450;44.518;7.466;2023-05-07T16:57:34;19.70;99.90
49549;DHT22;35450;44.518;7.466;2023-05-07T17:00:38;19.80;99.90
49549;DHT22;35450;44.518;7.466;2023-05-07T17:03:42;19.80;99.90
49549;DHT22;35450;44.518;7.466;2023-05-07T17:06:46;19.80;99.90
49549;DHT22;35450;44.518;7.466;2023-05-07T17:09:50;19.80;99.90
49549;DHT22;35450;44.518;7.466;2023-05-07T17:12:54;19.80;99.90
49549;DHT22;35450;44.518;7.466;2023-05-07T17:15:58;19.80;99.90
49549;DHT22;35450;44.518;7.466;2023-05-07T17:19:02;19.80;99.90
49549;DHT22;35450;44.518;7.466;2023-05-07T17:22:06;19.80;99.90
49549;DHT22;35450;44.518;7.466;2023-05-07T17:25:10;19.70;99.90
49549;DHT22;35450;44.518;7.466;2023-05-07T17:28:14;19.70;99.90
49549;DHT22;35450;44.518;7.466;2023-05-07T17:31:18;19.60;99.90
49549;DHT22;35450;44.518;7.466;2023-05-07T17:34:22;19.60;99.90
49549;DHT22;35450;44.518;7.466;2023-05-07T17:37:26;19.60;99.90
49549;DHT22;35450;44.518;7.466;2023-05-07T17:40:29;19.60;99.90
49549;DHT22;35450;44.518;7.466;2023-05-07T17:43:33;19.50;99.90
49549;DHT22;35450;44.518;7.466;2023-05-07T17:46:37;19.50;99.90
49549;DHT22;35450;44.518;7.466;2023-05-07T17:49:41;19.60;99.90
49549;DHT22;35450;44.518;7.466;2023-05-07T17:52:45;19.50;99.90
49549;DHT22;35450;44.518;7.466;2023-05-07T17:55:51;19.40;99.90
49549;DHT22;35450;44.518;7.466;2023-05-07T17:58:55;19.50;99.90
49549;DHT22;35450;44.518;7.466;2023-05-07T18:02:00;19.40;99.90
49549;DHT22;35450;44.518;7.466;2023-05-07T18:05:04;19.40;99.90
49549;DHT22;35450;44.518;7.466;2023-05-07T18:08:09;19.40;99.90
49549;DHT22;35450;44.518;7.466;2023-05-07T18:11:13;19.30;99.90
49549;DHT22;35450;44.518;7.466;2023-05-07T18:14:17;19.30;99.90
49549;DHT22;35450;44.518;7.466;2023-05-07T18:17:26;19.30;99.90
49549;DHT22;35450;44.518;7.466;2023-05-07T18:20:31;19.30;99.90
49549;DHT22;35450;44.518;7.466;2023-05-07T18:23:35;19.30;99.90
49549;DHT22;35450;44.518;7.466;2023-05-07T18:26:40;19.10;99.90
49549;DHT22;35450;44.518;7.466;2023-05-07T18:29:44;19.10;99.90
49549;DHT22;35450;44.518;7.466;2023-05-07T18:32:48;19.00;99.90
49549;DHT22;35450;44.518;7.466;2023-05-07T18:35:53;18.90;99.90
49549;DHT22;35450;44.518;7.466;2023-05-07T18:38:57;18.80;99.90
49549;DHT22;35450;44.518;7.466;2023-05-07T18:42:01;18.70;99.90
49549;DHT22;35450;44.518;7.466;2023-05-07T18:45:07;18.50;99.90
49549;DHT22;35450;44.518;7.466;2023-05-07T18:48:12;18.30;99.90
49549;DHT22;35450;44.518;7.466;2023-05-07T18:51:16;18.00;99.90
49549;DHT22;35450;44.518;7.466;2023-05-07T18:54:20;17.90;99.90
49549;DHT22;35450;44.518;7.466;2023-05-07T18:57:24;18.00;99.90
49549;DHT22;35450;44.518;7.466;2023-05-07T19:00:28;18.20;99.90
49549;DHT22;35450;44.518;7.466;2023-05-07T19:03:35;18.10;99.90
49549;DHT22;35450;44.518;7.466;2023-05-07T19:06:38;18.10;99.90
49549;DHT22;35450;44.518;7.466;2023-05-07T19:09:42;18.10;99.90
49549;DHT22;35450;44.518;7.466;2023-05-07T19:12:46;18.20;99.90
49549;DHT22;35450;44.518;7.466;2023-05-07T19:15:50;18.30;99.90
49549;DHT22;35450;44.518;7.466;2023-05-07T19:18:54;18.40;99.90
49549;DHT22;35450;44.518;7.466;2023-05-07T19:21:58;18.40;99.90
49549;DHT22;35450;44.518;7.466;2023-05-07T19:25:03;18.40;99.90
49549;DHT22;35450;44.518;7.466;2023-05-07T19:28:07;18.30;99.90
49549;DHT22;35450;44.518;7.466;2023-05-07T19:31:21;18.30;99.90
49549;DHT22;35450;44.518;7.466;2023-05-07T19:34:25;18.20;99.90
49549;DHT22;35450;44.518;7.466;2023-05-07T19:37:29;18.20;99.90